PWSweather.com
Personal Weather Stations
Station Observations

EefdeEefdeNL

Lat: 52.1737185, Lon: 6.2268684

Elevation: 26

Station Type: Davis Vantage Vue

http://www.weerstation-eefde.nl

Latest ConditionsUpdated 9:45:04 PM GMT+01:01 Monday, Sep 23, 2019
Currently Today's Max Today's Min Today's Average
Temperature 58.5°F14.7°C 69.4°F20.8°C 58.3°F14.6°C 62.8°F17.1°C
Dew Point 54.9°F12.7°C 60.1°F15.6°C 54.1°F12.3°C 58.0°F14.4°C
Winds Calm Calm 4.0 mph -6.4 kmh - - 1.0 mph 1.6 kmh
Wind Gusts -- 10.0 mph16.1 kmh - -
Humidity 88% 94% 66% 85%
Pressure 29.97 in1014.9 mb 29.97 in1014.9 mb 29.81 in1009.5 mb -
Precipitation - 0.14 in3.6 mm - -
Hour Temp Dew Point Humidity Winds Wind Gusts Pressure Precip Precip Rate Daily Precip Total
09:45 PM 58.5°F14.7°C 54.9°F12.7°C 88% Calm Calm -- 29.97 in1014.9 mb 0.00 in0.0 mm 0.00 in0.0 mm 0.14 in3.6 mm
09:30 PM 58.3°F14.6°C 54.7°F12.6°C 88% Calm Calm -- 29.97 in1014.9 mb 0.00 in0.0 mm 0.00 in0.0 mm 0.14 in3.6 mm
09:15 PM 58.3°F14.6°C 54.4°F12.4°C 87% Calm Calm -- 29.97 in1014.9 mb 0.00 in0.0 mm 0.00 in0.0 mm 0.14 in3.6 mm
09:00 PM 58.3°F14.6°C 54.1°F12.3°C 86% Calm Calm -- 29.97 in1014.9 mb 0.00 in0.0 mm 0.00 in0.0 mm 0.14 in3.6 mm
08:45 PM 59.2°F15.1°C 54.7°F12.6°C 85% Calm Calm -- 29.97 in1014.9 mb 0.00 in0.0 mm 0.00 in0.0 mm 0.14 in3.6 mm
08:30 PM 59.9°F15.5°C 55.1°F12.8°C 84% Calm Calm -- 29.97 in1014.9 mb 0.00 in0.0 mm 0.00 in0.0 mm 0.14 in3.6 mm
08:15 PM 60.3°F15.7°C 55.1°F12.8°C 83% Calm Calm -- 29.97 in1014.9 mb 0.00 in0.0 mm 0.00 in0.0 mm 0.14 in3.6 mm
08:00 PM 61.3°F16.3°C 55.5°F13.1°C 81% Calm Calm -- 29.97 in1014.9 mb 0.00 in0.0 mm 0.00 in0.0 mm 0.14 in3.6 mm
07:45 PM 62.1°F16.7°C 55.8°F13.2°C 80% Calm Calm -- 29.97 in1014.9 mb 0.00 in0.0 mm 0.00 in0.0 mm 0.14 in3.6 mm
07:30 PM 62.4°F16.9°C 55.8°F13.2°C 79% Calm Calm -- 29.97 in1014.9 mb 0.00 in0.0 mm 0.00 in0.0 mm 0.14 in3.6 mm
07:15 PM 62.8°F17.1°C 56.5°F13.6°C 80% Calm Calm 1.0 mph1.6 kmh 29.96 in1014.6 mb 0.00 in0.0 mm 0.00 in0.0 mm 0.14 in3.6 mm
07:00 PM 63.1°F17.3°C 56.9°F13.8°C 80% Calm Calm -- 29.96 in1014.6 mb 0.00 in0.0 mm 0.00 in0.0 mm 0.14 in3.6 mm
06:45 PM 63.9°F17.7°C 56.9°F13.8°C 78% Calm Calm -- 29.96 in1014.6 mb 0.00 in0.0 mm 0.00 in0.0 mm 0.14 in3.6 mm
06:15 PM 64.2°F17.9°C 56.9°F13.8°C 77% Calm Calm 2.0 mph3.2 kmh 29.96 in1014.6 mb 0.00 in0.0 mm 0.00 in0.0 mm 0.14 in3.6 mm
06:00 PM 64.2°F17.9°C 56.5°F13.6°C 76% Calm Calm 2.0 mph3.2 kmh 29.96 in1014.6 mb 0.00 in0.0 mm 0.00 in0.0 mm 0.14 in3.6 mm
05:45 PM 64.4°F18.0°C 56.7°F13.7°C 76% Calm Calm 2.0 mph3.2 kmh 29.95 in1014.2 mb 0.00 in0.0 mm 0.00 in0.0 mm 0.14 in3.6 mm
05:30 PM 64.6°F18.1°C 56.5°F13.6°C 75% 1.0 mph WSW1.6 kmh WSW 4.0 mph6.4 kmh 29.95 in1014.2 mb 0.00 in0.0 mm 0.00 in0.0 mm 0.14 in3.6 mm
05:15 PM 64.8°F18.2°C 56.6°F13.7°C 75% 1.0 mph SW1.6 kmh SW 4.0 mph6.4 kmh 29.95 in1014.2 mb 0.00 in0.0 mm 0.00 in0.0 mm 0.14 in3.6 mm
05:00 PM 65.3°F18.5°C 56.4°F13.6°C 73% 2.0 mph SW3.2 kmh SW 6.0 mph9.7 kmh 29.95 in1014.2 mb 0.00 in0.0 mm 0.00 in0.0 mm 0.14 in3.6 mm
04:45 PM 66.4°F19.1°C 57.1°F13.9°C 72% 3.0 mph SW4.8 kmh SW 8.0 mph12.9 kmh 29.95 in1014.2 mb 0.00 in0.0 mm 0.00 in0.0 mm 0.14 in3.6 mm
04:30 PM 67.1°F19.5°C 57.4°F14.1°C 71% 2.0 mph WSW3.2 kmh WSW 9.0 mph14.5 kmh 29.94 in1013.9 mb 0.00 in0.0 mm 0.00 in0.0 mm 0.14 in3.6 mm
04:15 PM 67.5°F19.7°C 58.1°F14.5°C 72% 2.0 mph W3.2 kmh W 7.0 mph11.3 kmh 29.94 in1013.9 mb 0.00 in0.0 mm 0.00 in0.0 mm 0.14 in3.6 mm
04:00 PM 66.7°F19.3°C 57.8°F14.3°C 73% 2.0 mph WSW3.2 kmh WSW 10.0 mph16.1 kmh 29.94 in1013.9 mb 0.00 in0.0 mm 0.00 in0.0 mm 0.14 in3.6 mm
03:45 PM 67.3°F19.6°C 57.2°F14.0°C 70% 3.0 mph WSW4.8 kmh WSW 8.0 mph12.9 kmh 29.94 in1013.9 mb 0.00 in0.0 mm 0.00 in0.0 mm 0.14 in3.6 mm
03:30 PM 68.9°F20.5°C 57.1°F13.9°C 66% 3.0 mph SW4.8 kmh SW 10.0 mph16.1 kmh 29.94 in1013.9 mb 0.00 in0.0 mm 0.00 in0.0 mm 0.14 in3.6 mm
03:15 PM 69.1°F20.6°C 57.7°F14.3°C 67% 1.0 mph WSW1.6 kmh WSW 5.0 mph8.0 kmh 29.93 in1013.5 mb 0.00 in0.0 mm 0.00 in0.0 mm 0.14 in3.6 mm
03:00 PM 69.3°F20.7°C 57.8°F14.3°C 67% 2.0 mph WSW3.2 kmh WSW 6.0 mph9.7 kmh 29.93 in1013.5 mb 0.00 in0.0 mm 0.00 in0.0 mm 0.14 in3.6 mm
02:45 PM 69.3°F20.7°C 57.8°F14.3°C 67% 2.0 mph SW3.2 kmh SW 6.0 mph9.7 kmh 29.93 in1013.5 mb 0.00 in0.0 mm 0.00 in0.0 mm 0.14 in3.6 mm
02:30 PM 69.4°F20.8°C 58.8°F14.9°C 69% 4.0 mph WSW6.4 kmh WSW 10.0 mph16.1 kmh 29.93 in1013.5 mb 0.00 in0.0 mm 0.00 in0.0 mm 0.14 in3.6 mm
02:15 PM 68.4°F20.2°C 58.2°F14.6°C 70% 2.0 mph SW3.2 kmh SW 6.0 mph9.7 kmh 29.93 in1013.5 mb 0.00 in0.0 mm 0.00 in0.0 mm 0.14 in3.6 mm
02:00 PM 68.2°F20.1°C 58.0°F14.4°C 70% 3.0 mph SW4.8 kmh SW 9.0 mph14.5 kmh 29.93 in1013.5 mb 0.00 in0.0 mm 0.00 in0.0 mm 0.14 in3.6 mm
01:45 PM 68.0°F20.0°C 58.6°F14.8°C 72% 3.0 mph WSW4.8 kmh WSW 8.0 mph12.9 kmh 29.93 in1013.5 mb 0.00 in0.0 mm 0.00 in0.0 mm 0.14 in3.6 mm
01:30 PM 68.0°F20.0°C 58.2°F14.6°C 71% 4.0 mph SW6.4 kmh SW 8.0 mph12.9 kmh 29.93 in1013.5 mb 0.00 in0.0 mm 0.00 in0.0 mm 0.14 in3.6 mm
01:15 PM 67.6°F19.8°C 58.7°F14.8°C 73% 3.0 mph SW4.8 kmh SW 8.0 mph12.9 kmh 29.93 in1013.5 mb 0.00 in0.0 mm 0.00 in0.0 mm 0.14 in3.6 mm
01:00 PM 68.4°F20.2°C 60.1°F15.6°C 75% 3.0 mph SW4.8 kmh SW 8.0 mph12.9 kmh 29.93 in1013.5 mb 0.00 in0.0 mm 0.00 in0.0 mm 0.14 in3.6 mm
12:45 PM 67.1°F19.5°C 60.0°F15.6°C 78% 3.0 mph SSW4.8 kmh SSW 8.0 mph12.9 kmh 29.93 in1013.5 mb 0.00 in0.0 mm 0.00 in0.0 mm 0.14 in3.6 mm
12:30 PM 65.7°F18.7°C 59.7°F15.4°C 81% 3.0 mph SW4.8 kmh SW 9.0 mph14.5 kmh 29.93 in1013.5 mb 0.00 in0.0 mm 0.00 in0.0 mm 0.14 in3.6 mm
12:15 PM 65.5°F18.6°C 59.8°F15.4°C 82% 3.0 mph SW4.8 kmh SW 8.0 mph12.9 kmh 29.93 in1013.5 mb 0.00 in0.0 mm 0.00 in0.0 mm 0.14 in3.6 mm
12:00 PM 64.9°F18.3°C 60.0°F15.6°C 84% 3.0 mph SSW4.8 kmh SSW 9.0 mph14.5 kmh 29.93 in1013.5 mb 0.00 in0.0 mm 0.00 in0.0 mm 0.14 in3.6 mm
11:45 AM 64.2°F17.9°C 59.9°F15.5°C 86% 2.0 mph SSW3.2 kmh SSW 5.0 mph8.0 kmh 29.93 in1013.5 mb 0.00 in0.0 mm 0.00 in0.0 mm 0.14 in3.6 mm
11:30 AM 63.1°F17.3°C 59.5°F15.3°C 88% 2.0 mph SSW3.2 kmh SSW 6.0 mph9.7 kmh 29.93 in1013.5 mb 0.00 in0.0 mm 0.00 in0.0 mm 0.14 in3.6 mm
11:15 AM 62.8°F17.1°C 59.5°F15.3°C 89% 2.0 mph SW3.2 kmh SW 6.0 mph9.7 kmh 29.93 in1013.5 mb 0.00 in0.0 mm 0.00 in0.0 mm 0.14 in3.6 mm
11:00 AM 62.8°F17.1°C 59.8°F15.4°C 90% 1.0 mph SSW1.6 kmh SSW 4.0 mph6.4 kmh 29.93 in1013.5 mb 0.00 in0.0 mm 0.00 in0.0 mm 0.14 in3.6 mm
10:45 AM 62.8°F17.1°C 59.8°F15.4°C 90% 2.0 mph SSW3.2 kmh SSW 7.0 mph11.3 kmh 29.93 in1013.5 mb 0.00 in0.0 mm 0.00 in0.0 mm 0.14 in3.6 mm
10:30 AM 62.4°F16.9°C 59.8°F15.4°C 91% 2.0 mph SSW3.2 kmh SSW 5.0 mph8.0 kmh 29.93 in1013.5 mb 0.00 in0.0 mm 0.00 in0.0 mm 0.14 in3.6 mm
10:15 AM 61.7°F16.5°C 59.4°F15.2°C 92% 2.0 mph SSW3.2 kmh SSW 7.0 mph11.3 kmh 29.93 in1013.5 mb 0.00 in0.0 mm 0.00 in0.0 mm 0.14 in3.6 mm
10:00 AM 61.3°F16.3°C 59.3°F15.2°C 93% 1.0 mph SSW1.6 kmh SSW 7.0 mph11.3 kmh 29.93 in1013.5 mb 0.00 in0.0 mm 0.00 in0.0 mm 0.14 in3.6 mm
09:45 AM 61.2°F16.2°C 59.1°F15.1°C 93% 2.0 mph SSW3.2 kmh SSW 5.0 mph8.0 kmh 29.93 in1013.5 mb 0.00 in0.0 mm 0.00 in0.0 mm 0.14 in3.6 mm
09:30 AM 60.8°F16.0°C 59.1°F15.1°C 94% 2.0 mph SW3.2 kmh SW 6.0 mph9.7 kmh 29.93 in1013.5 mb 0.00 in0.0 mm 0.00 in0.0 mm 0.14 in3.6 mm
09:15 AM 60.4°F15.8°C 58.7°F14.8°C 94% 1.0 mph S1.6 kmh S 4.0 mph6.4 kmh 29.92 in1013.2 mb 0.01 in0.3 mm 0.00 in0.0 mm 0.14 in3.6 mm
09:00 AM 60.4°F15.8°C 58.7°F14.8°C 94% 1.0 mph SSW1.6 kmh SSW 5.0 mph8.0 kmh 29.92 in1013.2 mb 0.01 in0.3 mm 0.00 in0.0 mm 0.14 in3.6 mm
08:45 AM 60.3°F15.7°C 58.5°F14.7°C 94% 2.0 mph SSW3.2 kmh SSW 5.0 mph8.0 kmh 29.92 in1013.2 mb 0.01 in0.3 mm 0.00 in0.0 mm 0.14 in3.6 mm
08:30 AM 60.3°F15.7°C 58.5°F14.7°C 94% Calm Calm 4.0 mph6.4 kmh 29.91 in1012.9 mb 0.01 in0.3 mm 0.04 in1.0 mm 0.14 in3.6 mm
08:15 AM 60.1°F15.6°C 58.3°F14.6°C 94% 1.0 mph SSW1.6 kmh SSW 4.0 mph6.4 kmh 29.91 in1012.9 mb 0.00 in0.0 mm 0.00 in0.0 mm 0.13 in3.3 mm
08:00 AM 60.1°F15.6°C 58.3°F14.6°C 94% Calm Calm 4.0 mph6.4 kmh 29.91 in1012.9 mb 0.00 in0.0 mm 0.00 in0.0 mm 0.13 in3.3 mm
07:45 AM 60.1°F15.6°C 58.3°F14.6°C 94% Calm Calm -- 29.90 in1012.5 mb 0.00 in0.0 mm 0.00 in0.0 mm 0.13 in3.3 mm
07:30 AM 59.9°F15.5°C 58.2°F14.6°C 94% Calm Calm 2.0 mph3.2 kmh 29.89 in1012.2 mb 0.00 in0.0 mm 0.00 in0.0 mm 0.13 in3.3 mm
07:15 AM 59.9°F15.5°C 58.2°F14.6°C 94% 1.0 mph SSW1.6 kmh SSW 5.0 mph8.0 kmh 29.89 in1012.2 mb 0.00 in0.0 mm 0.00 in0.0 mm 0.13 in3.3 mm
07:00 AM 59.9°F15.5°C 58.2°F14.6°C 94% Calm Calm 4.0 mph6.4 kmh 29.89 in1012.2 mb 0.00 in0.0 mm 0.00 in0.0 mm 0.13 in3.3 mm
06:45 AM 59.9°F15.5°C 58.2°F14.6°C 94% Calm Calm 3.0 mph4.8 kmh 29.88 in1011.9 mb 0.00 in0.0 mm 0.00 in0.0 mm 0.13 in3.3 mm
06:30 AM 59.9°F15.5°C 58.2°F14.6°C 94% Calm Calm 2.0 mph3.2 kmh 29.87 in1011.5 mb 0.00 in0.0 mm 0.00 in0.0 mm 0.13 in3.3 mm
06:15 AM 59.9°F15.5°C 58.2°F14.6°C 94% Calm Calm -- 29.87 in1011.5 mb 0.00 in0.0 mm 0.00 in0.0 mm 0.13 in3.3 mm
06:00 AM 60.1°F15.6°C 58.3°F14.6°C 94% Calm Calm -- 29.86 in1011.2 mb 0.01 in0.3 mm 0.00 in0.0 mm 0.13 in3.3 mm
05:45 AM 60.3°F15.7°C 58.5°F14.7°C 94% Calm Calm -- 29.86 in1011.2 mb 0.01 in0.3 mm 0.00 in0.0 mm 0.13 in3.3 mm
05:30 AM 60.3°F15.7°C 58.5°F14.7°C 94% Calm Calm 2.0 mph3.2 kmh 29.86 in1011.2 mb 0.01 in0.3 mm 0.00 in0.0 mm 0.13 in3.3 mm
05:15 AM 60.4°F15.8°C 58.7°F14.8°C 94% 1.0 mph SSW1.6 kmh SSW 3.0 mph4.8 kmh 29.86 in1011.2 mb 0.01 in0.3 mm 0.04 in1.0 mm 0.13 in3.3 mm
05:00 AM 60.3°F15.7°C 58.5°F14.7°C 94% 1.0 mph SW1.6 kmh SW 4.0 mph6.4 kmh 29.86 in1011.2 mb 0.00 in0.0 mm 0.00 in0.0 mm 0.12 in3.0 mm
04:45 AM 60.3°F15.7°C 58.2°F14.6°C 93% Calm Calm 2.0 mph3.2 kmh 29.86 in1011.2 mb 0.02 in0.5 mm 0.00 in0.0 mm 0.12 in3.0 mm
04:30 AM 60.4°F15.8°C 58.4°F14.7°C 93% Calm Calm 2.0 mph3.2 kmh 29.87 in1011.5 mb 0.04 in1.0 mm 0.00 in0.0 mm 0.12 in3.0 mm
04:15 AM 60.3°F15.7°C 58.2°F14.6°C 93% Calm Calm 2.0 mph3.2 kmh 29.87 in1011.5 mb 0.07 in1.8 mm 0.00 in0.0 mm 0.12 in3.0 mm
04:00 AM 60.4°F15.8°C 58.4°F14.7°C 93% Calm Calm -- 29.86 in1011.2 mb 0.10 in2.5 mm 0.01 in0.3 mm 0.12 in3.0 mm
03:45 AM 60.4°F15.8°C 58.4°F14.7°C 93% Calm Calm -- 29.86 in1011.2 mb 0.09 in2.3 mm 0.08 in2.0 mm 0.11 in2.8 mm
03:30 AM 60.4°F15.8°C 58.1°F14.5°C 92% Calm Calm 2.0 mph3.2 kmh 29.86 in1011.2 mb 0.07 in1.8 mm 0.08 in2.0 mm 0.08 in2.0 mm
03:15 AM 60.8°F16.0°C 58.5°F14.7°C 92% Calm Calm -- 29.85 in1010.8 mb 0.05 in1.3 mm 0.12 in3.0 mm 0.06 in1.5 mm
03:00 AM 60.8°F16.0°C 58.5°F14.7°C 92% Calm Calm -- 29.85 in1010.8 mb 0.02 in0.5 mm 0.00 in0.0 mm 0.02 in0.5 mm
02:45 AM 60.8°F16.0°C 58.5°F14.7°C 92% Calm Calm -- 29.85 in1010.8 mb 0.02 in0.5 mm 0.04 in1.0 mm 0.02 in0.5 mm
02:30 AM 61.0°F16.1°C 58.6°F14.8°C 92% Calm Calm -- 29.84 in1010.5 mb 0.01 in0.3 mm 0.00 in0.0 mm 0.01 in0.3 mm
02:15 AM 61.0°F16.1°C 58.3°F14.6°C 91% Calm Calm 2.0 mph3.2 kmh 29.84 in1010.5 mb 0.01 in0.3 mm 0.00 in0.0 mm 0.01 in0.3 mm
02:00 AM 61.2°F16.2°C 58.5°F14.7°C 91% Calm Calm 3.0 mph4.8 kmh 29.84 in1010.5 mb 0.01 in0.3 mm 0.01 in0.3 mm 0.01 in0.3 mm
01:45 AM 61.3°F16.3°C 58.7°F14.8°C 91% 1.0 mph SW1.6 kmh SW 4.0 mph6.4 kmh 29.84 in1010.5 mb 0.00 in0.0 mm 0.00 in0.0 mm 0.00 in0.0 mm
01:30 AM 61.9°F16.6°C 59.2°F15.1°C 91% Calm Calm 3.0 mph4.8 kmh 29.84 in1010.5 mb 0.00 in0.0 mm 0.00 in0.0 mm 0.00 in0.0 mm
01:15 AM 61.9°F16.6°C 59.2°F15.1°C 91% Calm Calm 3.0 mph4.8 kmh 29.83 in1010.2 mb 0.00 in0.0 mm 0.00 in0.0 mm 0.00 in0.0 mm
01:00 AM 61.9°F16.6°C 58.9°F14.9°C 90% Calm Calm 3.0 mph4.8 kmh 29.83 in1010.2 mb 0.00 in0.0 mm 0.00 in0.0 mm 0.00 in0.0 mm
12:45 AM 62.1°F16.7°C 59.1°F15.1°C 90% Calm Calm 2.0 mph3.2 kmh 29.82 in1009.8 mb 0.00 in0.0 mm 0.00 in0.0 mm 0.00 in0.0 mm
12:30 AM 62.4°F16.9°C 59.1°F15.1°C 89% 1.0 mph WSW1.6 kmh WSW 5.0 mph8.0 kmh 29.82 in1009.8 mb 0.00 in0.0 mm 0.00 in0.0 mm 0.00 in0.0 mm
12:15 AM 62.8°F17.1°C 59.5°F15.3°C 89% 2.0 mph WSW3.2 kmh WSW 8.0 mph12.9 kmh 29.82 in1009.8 mb 0.00 in0.0 mm 0.00 in0.0 mm 0.00 in0.0 mm
12:00 AM 63.5°F17.5°C 59.9°F15.5°C 88% 2.0 mph SW3.2 kmh SW 8.0 mph12.9 kmh 29.81 in1009.5 mb 0.00 in0.0 mm 0.00 in0.0 mm 0.00 in0.0 mm